Observation Tools

Eastern serviceberry Photo courtesy of Albert F. W. Vick, Lady Bird Wildflower Center, www.wildflower.org.

Eastern serviceberry (Amelanchier canadensis)


Also Known As: Shadow serviceberry, Canadian serviceberry, Shadbush, Eastern juneberry
Plant Family: Rose (Rosaceae)
Project BudBurst Plant Group: Deciduous Trees and Shrubs

Identification Hints: A small understory tree or largemulti-trunked shrub, 6 to 20 ft tall, usually growing in clumps with many upright branches. The white, five-petaled flowers open before the leaves emerge (or leaves are still folded and hairy when flowers emerge). The leaves are alternate and simple with hairs on the underside. The fruit is a small, red berry-like pome that turns dark purple when ripe.

Did you Know? Serviceberries are subject to many disease and insect problems. Damage from these problems is usually cosmetic rather than life threatening. Also, it is an important browse and food plant for birds and other wildlife.


Live Map for Eastern serviceberry

Other years available for viewing:

Below you can view all observations that have been reported in for Eastern serviceberry (If the map below is empty then there have not been any observations reported.)

Use the navigation buttons on the left to zoom in/out and pan around. Click on each place marker to get detail information about that observation.

Leaf/Needles/Stalk = Leaf/Needles/Stalk Flower = Flower Pollen = Pollen Fruiting = Fruiting Color = Color

--Back to Top--

close help window button

The table below displays all the data that has been submitted to Project BudBurst. By default, the data is sorted by the date on which the phenophase occurred. Clicking the up and down arrows next to each column name allows you to sort on any value. If there have been more than 10 observations submitted, you can choose how many to display at a time using the "Show __ entries" control. You can also page through the data using the previous and next buttons at the bottom right of the table.

The Search box allows you to search all of the data. Searching by date, species, phenophase, etc. is easy—just start typing and the table will immediately change to contain only observations that contain your search phrase. Do you want to see only 2012 observations? Just type "2012" in the search box. Only want to see maples? Enter "Acer." You can combine searches, too! Searching for "acer 2012" will narrow your results to only the maples that were observed in 2012 (assuming that any observations exist, of course).

Once you have your results in the order desired, you can use any of the buttons above the search box to copy the results to the clipboard; save them as a text, or spreadsheet; or even print them from your browser!

Observational data for Eastern serviceberry:

help button
Date Contributor Common Name Species Phenophase Latitude Longitude Obs#
Wed Feb 20 00:00:00 GMT 2008 sneukirk Eastern serviceberry Amelanchier canadensis First Leaf 38.897000000000000 -77.134400000000000 104
Wed Mar 05 00:00:00 GMT 2008 lauranne7 Eastern serviceberry Amelanchier canadensis First Leaf 36.109300000000000 -79.833200000000000 476
Mon Mar 17 00:00:00 GMT 2008 naturelover07 Eastern serviceberry Amelanchier canadensis First Flower 33.816200000000000 -83.950600000000000 746
Mon Mar 24 00:00:00 GMT 2008 janeylou47 Eastern serviceberry Amelanchier canadensis First Leaf 41.982700000000000 -71.341400000000000 871
Sat Mar 15 00:00:00 GMT 2008 jkakiwi Eastern serviceberry Amelanchier canadensis First Leaf 44.676200000000000 -124.059000000000000 963
Fri Mar 28 00:00:00 GMT 2008 jkakiwi Eastern serviceberry Amelanchier canadensis First Flower 44.676200000000000 -124.059000000000000 964
Fri Mar 28 00:00:00 GMT 2008 Yvonne Orkin Eastern serviceberry Amelanchier canadensis Full Flower 38.953900000000000 -75.933100000000000 1100
Tue Apr 01 00:00:00 GMT 2008 jkakiwi Eastern serviceberry Amelanchier canadensis All Leaves Unfolded 44.676200000000000 -124.059000000000000 1370
Thu Apr 03 00:00:00 GMT 2008 jkakiwi Eastern serviceberry Amelanchier canadensis Full Flower 44.676200000000000 -124.059000000000000 1371
Wed Feb 20 00:00:00 GMT 2008 sneukirk Eastern serviceberry Amelanchier canadensis All Leaves Unfolded 38.897000000000000 -77.134400000000000 1546
Fri Apr 11 00:00:00 GMT 2008 sneukirk Eastern serviceberry Amelanchier canadensis First Flower 38.897000000000000 -77.134400000000000 1547
Sat Apr 12 00:00:00 GMT 2008 sneukirk Eastern serviceberry Amelanchier canadensis Full Flower 38.897000000000000 -77.134400000000000 1588
Fri Apr 11 00:00:00 GMT 2008 gilgris Eastern serviceberry Amelanchier canadensis First Flower 39.832300000000000 -74.966500000000000 1589
Fri Apr 11 00:00:00 GMT 2008 ty5734mullen@yahoo.com Eastern serviceberry Amelanchier canadensis First Flower 39.461400000000000 -77.309400000000000 1607
Thu Apr 10 00:00:00 GMT 2008 anonymous Eastern serviceberry Amelanchier canadensis First Flower 39.240200000000000 -77.802600000000000 1689
Sun Apr 06 00:00:00 GMT 2008 sheltonirisd Eastern serviceberry Amelanchier canadensis Full Flower 35.796400000000000 -84.687000000000000 1722
Thu Apr 10 00:00:00 GMT 2008 sheltonirisd Eastern serviceberry Amelanchier canadensis End of Flowering 35.796400000000000 -84.687000000000000 1723
Sat Apr 12 00:00:00 GMT 2008 engle-hills Eastern serviceberry Amelanchier canadensis Full Flower 37.122100000000000 -76.448600000000000 1736
Mon Apr 14 00:00:00 GMT 2008 elasil Eastern serviceberry Amelanchier canadensis First Leaf 40.953500000000000 -74.138500000000000 1788
Fri Apr 18 00:00:00 GMT 2008 elasil Eastern serviceberry Amelanchier canadensis First Flower 40.953500000000000 -74.138500000000000 1854
Fri Apr 18 00:00:00 GMT 2008 conniecmt Eastern serviceberry Amelanchier canadensis First Flower 41.359300000000000 -73.908000000000000 1857
Sun Apr 20 00:00:00 GMT 2008 sneukirk Eastern serviceberry Amelanchier canadensis End of Flowering 38.897000000000000 -77.134400000000000 1915
Sun Apr 20 00:00:00 GMT 2008 elasil Eastern serviceberry Amelanchier canadensis Full Flower 40.953500000000000 -74.138500000000000 1933
Mon Apr 21 00:00:00 GMT 2008 rosary2@yahoo.com Eastern serviceberry Amelanchier canadensis First Leaf 41.849900000000000 -86.181800000000000 1968
Tue Apr 22 00:00:00 GMT 2008 anonymous Eastern serviceberry Amelanchier canadensis First Flower 41.255600000000000 -76.420600000000000 2051
Tue Apr 22 00:00:00 GMT 2008 evora93 Eastern serviceberry Amelanchier canadensis First Flower 42.708400000000000 -84.418300000000000 2088
Wed Apr 23 00:00:00 GMT 2008 evora93 Eastern serviceberry Amelanchier canadensis First Leaf 42.708400000000000 -84.418300000000000 2121
Wed Apr 23 00:00:00 GMT 2008 evora93 Eastern serviceberry Amelanchier canadensis Full Flower 42.708400000000000 -84.418300000000000 2122
Tue Apr 22 00:00:00 GMT 2008 anonymous Eastern serviceberry Amelanchier canadensis First Flower 41.255600000000000 -76.420600000000000 2144
Wed Apr 23 00:00:00 GMT 2008 anonymous Eastern serviceberry Amelanchier canadensis Full Flower 41.255600000000000 -76.420600000000000 2145
Fri Apr 18 00:00:00 GMT 2008 sneukirk Eastern serviceberry Amelanchier canadensis All Leaves Unfolded 38.897000000000000 -77.134400000000000 2146
Wed Apr 23 00:00:00 GMT 2008 elasil Eastern serviceberry Amelanchier canadensis All Leaves Unfolded 40.953500000000000 -74.138500000000000 2150
Sun Apr 20 00:00:00 GMT 2008 Charles_Sullivan Eastern serviceberry Amelanchier canadensis First Leaf 39.300000000000000 -78.180000000000000 2161
Sat Apr 19 00:00:00 GMT 2008 Charles_Sullivan Eastern serviceberry Amelanchier canadensis End of Flowering 39.300000000000000 -78.180000000000000 2162
Fri Apr 25 00:00:00 GMT 2008 jkakiwi Eastern serviceberry Amelanchier canadensis End of Flowering 44.676200000000000 -124.059000000000000 2272
Thu Apr 24 00:00:00 GMT 2008 jcraves Eastern serviceberry Amelanchier canadensis First Flower 42.310700000000000 -83.195500000000000 2276
Fri Apr 25 00:00:00 GMT 2008 elasil Eastern serviceberry Amelanchier canadensis End of Flowering 40.953500000000000 -74.138500000000000 2403
Mon Apr 28 00:00:00 GMT 2008 heather Eastern serviceberry Amelanchier canadensis Full Flower 43.182400000000000 -78.655000000000000 2577
Fri Apr 11 00:00:00 GMT 2008 anonymous Eastern serviceberry Amelanchier canadensis First Leaf 38.996700000000000 -76.996900000000000 2595
Sat Apr 12 00:00:00 GMT 2008 anonymous Eastern serviceberry Amelanchier canadensis Full Flower 38.996700000000000 -76.996900000000000 2596
Thu Apr 24 00:00:00 GMT 2008 IlexAcer Eastern serviceberry Amelanchier canadensis First Leaf 42.414800000000000 -71.215700000000000 2600
Fri Apr 25 00:00:00 GMT 2008 rosary2@yahoo.com Eastern serviceberry Amelanchier canadensis First Flower 41.849900000000000 -86.181800000000000 2604
Sun Apr 27 00:00:00 GMT 2008 rosary2@yahoo.com Eastern serviceberry Amelanchier canadensis Full Flower 41.849900000000000 -86.181800000000000 2605
Sun Apr 27 00:00:00 GMT 2008 jcraves Eastern serviceberry Amelanchier canadensis Full Flower 42.310700000000000 -83.195500000000000 2666
Tue Apr 08 00:00:00 GMT 2008 cpartain Eastern serviceberry Amelanchier canadensis Full Flower 39.286700000000000 -76.608700000000000 2676
Mon Apr 28 00:00:00 GMT 2008 evora93 Eastern serviceberry Amelanchier canadensis All Leaves Unfolded 42.708400000000000 -84.418300000000000 2704
Mon Apr 28 00:00:00 GMT 2008 evora93 Eastern serviceberry Amelanchier canadensis End of Flowering 42.708400000000000 -84.418300000000000 2705
Mon Apr 21 00:00:00 GMT 2008 sfogel Eastern serviceberry Amelanchier canadensis First Leaf 41.805900000000000 -87.601600000000000 2718
Thu Apr 24 00:00:00 GMT 2008 sfogel Eastern serviceberry Amelanchier canadensis All Leaves Unfolded 41.805900000000000 -87.601600000000000 2719
Sun Apr 27 00:00:00 GMT 2008 sfogel Eastern serviceberry Amelanchier canadensis First Flower 41.805900000000000 -87.601600000000000 2720
Thu May 01 00:00:00 GMT 2008 rosary2@yahoo.com Eastern serviceberry Amelanchier canadensis End of Flowering 41.849900000000000 -86.181800000000000 2735
Thu May 01 00:00:00 GMT 2008 MENDOTA Eastern serviceberry Amelanchier canadensis First Flower 41.564200000000000 -89.124400000000000 2757
Sat May 03 00:00:00 GMT 2008 MENDOTA Eastern serviceberry Amelanchier canadensis Full Flower 41.564200000000000 -89.124400000000000 2758
Thu May 01 00:00:00 GMT 2008 MENDOTA Eastern serviceberry Amelanchier canadensis First Leaf 41.564200000000000 -89.124400000000000 2824
Mon May 05 00:00:00 GMT 2008 MENDOTA Eastern serviceberry Amelanchier canadensis All Leaves Unfolded 41.564200000000000 -89.124400000000000 2825
Sun Apr 27 00:00:00 GMT 2008 anonymous Eastern serviceberry Amelanchier canadensis First Flower 44.539800000000000 -73.214700000000000 2895
Tue May 06 00:00:00 GMT 2008 chrisj0727 Eastern serviceberry Amelanchier canadensis First Leaf 44.789600000000000 -93.111700000000000 3056
Fri May 09 00:00:00 GMT 2008 chrisj0727 Eastern serviceberry Amelanchier canadensis All Leaves Unfolded 44.789600000000000 -93.111700000000000 3154
Mon May 12 00:00:00 GMT 2008 rosary2@yahoo.com Eastern serviceberry Amelanchier canadensis All Leaves Unfolded 41.849900000000000 -86.181800000000000 3475
Wed May 14 00:00:00 GMT 2008 chrisj0727 Eastern serviceberry Amelanchier canadensis First Flower 44.789600000000000 -93.111700000000000 3617
Fri May 16 00:00:00 GMT 2008 chrisj0727 Eastern serviceberry Amelanchier canadensis Full Flower 44.789600000000000 -93.111700000000000 3618
Sun May 18 00:00:00 GMT 2008 jpastor Eastern serviceberry Amelanchier canadensis First Leaf 46.800000000000000 -92.100000000000000 3646
Sat May 24 00:00:00 GMT 2008 allib001 Eastern serviceberry Amelanchier canadensis End of Flowering 44.969800000000000 -93.229900000000000 3765
Sat May 24 00:00:00 GMT 2008 jpastor Eastern serviceberry Amelanchier canadensis All Leaves Unfolded 46.800000000000000 -92.100000000000000 3878
Mon May 26 00:00:00 GMT 2008 jpastor Eastern serviceberry Amelanchier canadensis First Flower 46.800000000000000 -92.100000000000000 3879
Fri May 30 00:00:00 GMT 2008 jpastor Eastern serviceberry Amelanchier canadensis Full Flower 46.800000000000000 -92.100000000000000 3880
Sat Jun 07 00:00:00 GMT 2008 elasil Eastern serviceberry Amelanchier canadensis First Ripe Fruit 40.953500000000000 -74.138500000000000 4104
Sun May 25 00:00:00 GMT 2008 chrisj0727 Eastern serviceberry Amelanchier canadensis End of Flowering 44.789600000000000 -93.111700000000000 4215
Sun Apr 20 00:00:00 GMT 2008 vanndawn Eastern serviceberry Amelanchier canadensis First Leaf 38.996400000000000 -92.613100000000000 4361
Sat Apr 26 00:00:00 GMT 2008 vanndawn Eastern serviceberry Amelanchier canadensis All Leaves Unfolded 38.996400000000000 -92.613100000000000 4362
Tue Jul 01 00:00:00 GMT 2008 chrisj0727 Eastern serviceberry Amelanchier canadensis First Ripe Fruit 44.789600000000000 -93.111700000000000 4411
Sat Jun 28 00:00:00 GMT 2008 allib001 Eastern serviceberry Amelanchier canadensis First Ripe Fruit 44.969800000000000 -93.229900000000000 4420
Sat Apr 12 00:00:00 GMT 2008 rg Eastern serviceberry Amelanchier canadensis First Flower 39.671500000000000 -82.541200000000000 4636
Wed Apr 23 00:00:00 GMT 2008 mta Eastern serviceberry Amelanchier canadensis First Leaf 42.222400000000000 -74.125200000000000 4672
Mon May 05 00:00:00 GMT 2008 mta Eastern serviceberry Amelanchier canadensis All Leaves Unfolded 42.222400000000000 -74.125200000000000 4673
Thu May 08 00:00:00 GMT 2008 mta Eastern serviceberry Amelanchier canadensis Full Flower 42.222400000000000 -74.125200000000000 4674
Fri Apr 18 00:00:00 GMT 2008 BioBarb Eastern serviceberry Amelanchier canadensis First Leaf 40.177800000000000 -74.219000000000000 4738
Tue Apr 22 00:00:00 GMT 2008 BioBarb Eastern serviceberry Amelanchier canadensis All Leaves Unfolded 40.177800000000000 -74.219000000000000 4739
Wed Apr 16 00:00:00 GMT 2008 BioBarb Eastern serviceberry Amelanchier canadensis First Flower 40.177800000000000 -74.219000000000000 4740
Thu Apr 17 00:00:00 GMT 2008 BioBarb Eastern serviceberry Amelanchier canadensis Full Flower 40.177800000000000 -74.219000000000000 4741
Mon Apr 21 00:00:00 GMT 2008 BioBarb Eastern serviceberry Amelanchier canadensis End of Flowering 40.177800000000000 -74.219000000000000 4742
Tue Jun 24 00:00:00 GMT 2008 BioBarb Eastern serviceberry Amelanchier canadensis First Ripe Fruit 40.177800000000000 -74.219000000000000 4743
Sun Apr 05 00:00:00 GMT 2009 rg Eastern serviceberry Amelanchier canadensis First Flower 39.671500000000000 -82.541200000000000 5545
Fri Apr 10 00:00:00 GMT 2009 MSuddeth Eastern serviceberry Amelanchier canadensis First Flower 38.972700000000000 -76.732000000000000 5573
Sun Apr 12 00:00:00 GMT 2009 jmchris Eastern serviceberry Amelanchier canadensis First Leaf 39.257500000000000 -75.906100000000000 5590
Fri Apr 10 00:00:00 GMT 2009 jmchris Eastern serviceberry Amelanchier canadensis Full Flower 39.257500000000000 -75.906100000000000 5591
Fri Apr 03 00:00:00 GMT 2009 Wildegenes Eastern serviceberry Amelanchier canadensis First Leaf 38.899100000000000 -77.098400000000000 5672
Sun Apr 12 00:00:00 GMT 2009 judymoon Eastern serviceberry Amelanchier canadensis First Leaf 41.017900000000000 -81.555800000000000 5619
Wed Apr 15 00:00:00 GMT 2009 Wildegenes Eastern serviceberry Amelanchier canadensis First Flower 38.899100000000000 -77.098400000000000 5750
Thu Apr 16 00:00:00 GMT 2009 srulison Eastern serviceberry Amelanchier canadensis First Leaf 37.540000000000000 -75.920000000000000 5812
Fri Apr 10 00:00:00 GMT 2009 srulison Eastern serviceberry Amelanchier canadensis First Flower 37.540000000000000 -75.920000000000000 5813
Tue Apr 14 00:00:00 GMT 2009 srulison Eastern serviceberry Amelanchier canadensis Full Flower 37.540000000000000 -75.920000000000000 5814
Sat Apr 18 00:00:00 GMT 2009 elasil Eastern serviceberry Amelanchier canadensis First Leaf 40.953500000000000 -74.138500000000000 5887
Wed Apr 08 00:00:00 GMT 2009 ty5734mullen@yahoo.com Eastern serviceberry Amelanchier canadensis First Flower 39.461400000000000 -77.309400000000000 5832
Thu Apr 16 00:00:00 GMT 2009 sjrulison Eastern serviceberry Amelanchier canadensis First Leaf 37.545100000000000 -75.927600000000000 5824
Fri Apr 10 00:00:00 GMT 2009 sjrulison Eastern serviceberry Amelanchier canadensis First Flower 37.545100000000000 -75.927600000000000 5825
Tue Apr 14 00:00:00 GMT 2009 sjrulison Eastern serviceberry Amelanchier canadensis Full Flower 37.545100000000000 -75.927600000000000 5826
Thu Apr 23 00:00:00 GMT 2009 allib001 Eastern serviceberry Amelanchier canadensis First Leaf 44.969800000000000 -93.229900000000000 6510
Thu Apr 23 00:00:00 GMT 2009 elasil Eastern serviceberry Amelanchier canadensis Full Flower 40.953500000000000 -74.138500000000000 6475
Fri Apr 24 00:00:00 GMT 2009 allib001 Eastern serviceberry Amelanchier canadensis First Flower 44.969800000000000 -93.229900000000000 6568
Thu Apr 23 00:00:00 GMT 2009 anonymous Eastern serviceberry Amelanchier canadensis First Leaf 42.209600000000000 -88.998700000000000 6544
Wed Apr 22 00:00:00 GMT 2009 sjrulison Eastern serviceberry Amelanchier canadensis End of Flowering 37.545100000000000 -75.927600000000000 6547
Fri Apr 24 00:00:00 GMT 2009 karcuri Eastern serviceberry Amelanchier canadensis First Flower 41.255600000000000 -76.420600000000000 6679
Sun Apr 26 00:00:00 GMT 2009 karcuri Eastern serviceberry Amelanchier canadensis Full Flower 41.255600000000000 -76.420600000000000 6680
Thu Apr 23 00:00:00 GMT 2009 leeandbarbara@verizon.net Eastern serviceberry Amelanchier canadensis First Leaf 40.230800000000000 -74.017800000000000 6792
Mon Apr 27 00:00:00 GMT 2009 leeandbarbara@verizon.net Eastern serviceberry Amelanchier canadensis All Leaves Unfolded 40.230800000000000 -74.017800000000000 6793
Mon Apr 20 00:00:00 GMT 2009 leeandbarbara@verizon.net Eastern serviceberry Amelanchier canadensis First Flower 40.230800000000000 -74.017800000000000 6794
Fri Apr 24 00:00:00 GMT 2009 leeandbarbara@verizon.net Eastern serviceberry Amelanchier canadensis Full Flower 40.230800000000000 -74.017800000000000 6795
Mon Apr 27 00:00:00 GMT 2009 leeandbarbara@verizon.net Eastern serviceberry Amelanchier canadensis End of Flowering 40.230800000000000 -74.017800000000000 6796
Mon Apr 27 00:00:00 GMT 2009 sjrulison Eastern serviceberry Amelanchier canadensis All Leaves Unfolded 37.545100000000000 -75.927600000000000 6766
Sun Apr 26 00:00:00 GMT 2009 cmeldrum Eastern serviceberry Amelanchier canadensis First Leaf 42.473500000000000 -83.374300000000000 6973
Tue Apr 28 00:00:00 GMT 2009 cmeldrum Eastern serviceberry Amelanchier canadensis All Leaves Unfolded 42.473500000000000 -83.374300000000000 6974
Tue Apr 28 00:00:00 GMT 2009 cmeldrum Eastern serviceberry Amelanchier canadensis First Flower 42.473500000000000 -83.374300000000000 6975
Sat May 02 00:00:00 GMT 2009 cmeldrum Eastern serviceberry Amelanchier canadensis Full Flower 42.473500000000000 -83.374300000000000 6976
Sat Apr 25 00:00:00 GMT 2009 knautiamom Eastern serviceberry Amelanchier canadensis Full Flower 41.631000000000000 -86.291000000000000 6941
Mon May 04 00:00:00 GMT 2009 knautiamom Eastern serviceberry Amelanchier canadensis End of Flowering 41.631000000000000 -86.291000000000000 6942
Sat May 02 00:00:00 GMT 2009 allib001 Eastern serviceberry Amelanchier canadensis First Leaf 45.053700000000000 -92.812700000000000 6953
Mon May 04 00:00:00 GMT 2009 allib001 Eastern serviceberry Amelanchier canadensis Full Flower 44.969800000000000 -93.229900000000000 7017
Tue May 05 00:00:00 GMT 2009 allib001 Eastern serviceberry Amelanchier canadensis First Flower 45.053700000000000 -92.812700000000000 7073
Thu May 07 00:00:00 GMT 2009 allib001 Eastern serviceberry Amelanchier canadensis Full Flower 45.053700000000000 -92.812700000000000 7121
Fri May 08 00:00:00 GMT 2009 cmeldrum Eastern serviceberry Amelanchier canadensis End of Flowering 42.473500000000000 -83.374300000000000 7228
Sun May 10 00:00:00 GMT 2009 allib001 Eastern serviceberry Amelanchier canadensis All Leaves Unfolded 45.053700000000000 -92.812700000000000 7392
Mon Apr 27 00:00:00 GMT 2009 clehn Eastern serviceberry Amelanchier canadensis All Leaves Unfolded 41.512000000000000 -81.610400000000000 7457
Sat Apr 18 00:00:00 GMT 2009 clehn Eastern serviceberry Amelanchier canadensis First Flower 41.512000000000000 -81.610400000000000 7458
Mon Apr 20 00:00:00 GMT 2009 clehn Eastern serviceberry Amelanchier canadensis Full Flower 41.512000000000000 -81.610400000000000 7459
Sun Apr 26 00:00:00 GMT 2009 clehn Eastern serviceberry Amelanchier canadensis End of Flowering 41.512000000000000 -81.610400000000000 7460
Fri May 15 00:00:00 GMT 2009 allib001 Eastern serviceberry Amelanchier canadensis End of Flowering 45.053700000000000 -92.812700000000000 7522
Sat Jun 20 00:00:00 GMT 2009 allib001 Eastern serviceberry Amelanchier canadensis First Ripe Fruit 45.053700000000000 -92.812700000000000 8343
Thu Oct 22 00:00:00 GMT 2009 allib001 Eastern serviceberry Amelanchier canadensis 50% Color 44.969800000000000 -93.229900000000000 8825
Mon Oct 26 00:00:00 GMT 2009 allib001 Eastern serviceberry Amelanchier canadensis 50% Color 45.053700000000000 -92.812700000000000 8838
Sat Nov 07 00:00:00 GMT 2009 allib001 Eastern serviceberry Amelanchier canadensis 50% Leaf Fall 45.053700000000000 -92.812700000000000 8925
Tue Apr 07 00:00:00 GMT 2009 anonymous Eastern serviceberry Amelanchier canadensis First Flower 39.066800000000000 -76.996800000000000 9047
Wed Oct 14 00:00:00 GMT 2009 anonymous Eastern serviceberry Amelanchier canadensis 50% Color 39.066800000000000 -76.996800000000000 9048
Tue Apr 06 00:00:00 GMT 2010 anonymous Eastern serviceberry Amelanchier canadensis First Flower 41.255600000000000 -76.420600000000000 9479
Wed Apr 07 00:00:00 GMT 2010 anonymous Eastern serviceberry Amelanchier canadensis Full Flower 41.255600000000000 -76.420600000000000 9480
Wed Apr 07 00:00:00 GMT 2010 knautiamom Eastern serviceberry Amelanchier canadensis First Leaf 41.631000000000000 -86.291000000000000 9503
Wed Apr 07 00:00:00 GMT 2010 knautiamom Eastern serviceberry Amelanchier canadensis First Flower 41.631000000000000 -86.291000000000000 9504
Sun Apr 11 00:00:00 GMT 2010 cmeldrum Eastern serviceberry Amelanchier canadensis First Leaf 42.473500000000000 -83.374300000000000 9513
Mon Apr 12 00:00:00 GMT 2010 sre Eastern serviceberry Amelanchier canadensis First Flower 43.174000000000000 -76.226200000000000 9559
Mon Apr 12 00:00:00 GMT 2010 sre Eastern serviceberry Amelanchier canadensis First Flower 43.149300000000000 -76.223400000000000 9557
Wed Apr 07 00:00:00 GMT 2010 ralli Eastern serviceberry Amelanchier canadensis First Flower 44.970900000000000 -93.233300000000000 9936
Thu Apr 15 00:00:00 GMT 2010 ralli Eastern serviceberry Amelanchier canadensis First Flower 45.053600000000000 -92.812900000000000 9920
Mon Apr 05 00:00:00 GMT 2010 ralli Eastern serviceberry Amelanchier canadensis First Leaf 44.970900000000000 -93.233300000000000 9935
Wed Apr 14 00:00:00 GMT 2010 ralli Eastern serviceberry Amelanchier canadensis Full Flower 44.970900000000000 -93.233300000000000 9937
Tue Apr 27 00:00:00 GMT 2010 Bobcats Eastern serviceberry Amelanchier canadensis First Leaf 46.206000000000000 -85.757000000000000 10174
Fri Apr 30 00:00:00 GMT 2010 Bobcats Eastern serviceberry Amelanchier canadensis All Leaves Unfolded 46.206000000000000 -85.757000000000000 10222
Fri Apr 30 00:00:00 GMT 2010 Bobcats Eastern serviceberry Amelanchier canadensis First Flower 46.206000000000000 -85.757000000000000 10223
Wed Apr 21 00:00:00 GMT 2010 centralNY Eastern serviceberry Amelanchier canadensis First Leaf 43.041000000000000 -76.212900000000000 10256
Sun Apr 11 00:00:00 GMT 2010 centralNY Eastern serviceberry Amelanchier canadensis First Flower 43.041000000000000 -76.212900000000000 10257
Thu Apr 29 00:00:00 GMT 2010 centralNY Eastern serviceberry Amelanchier canadensis End of Flowering 43.041000000000000 -76.212900000000000 10258
Sat May 01 00:00:00 GMT 2010 Bobcats Eastern serviceberry Amelanchier canadensis Full Flower 46.206000000000000 -85.757000000000000 10276
Tue Apr 20 00:00:00 GMT 2010 ralli Eastern serviceberry Amelanchier canadensis End of Flowering 44.970900000000000 -93.233300000000000 10311
Fri Apr 23 00:00:00 GMT 2010 ralli Eastern serviceberry Amelanchier canadensis All Leaves Unfolded 44.970900000000000 -93.233300000000000 10312
Sat May 15 00:00:00 GMT 2010 shinnob21 Eastern serviceberry Amelanchier canadensis Full Flower 47.958900000000000 -89.691300000000000 10614
Tue May 18 00:00:00 GMT 2010 Bobcats Eastern serviceberry Amelanchier canadensis End of Flowering 46.206000000000000 -85.757000000000000 10650
Sun May 30 00:00:00 GMT 2010 janet.chandler Eastern serviceberry Amelanchier canadensis First Ripe Fruit 40.395800000000000 -82.465400000000000 10722
Fri Jun 04 00:00:00 GMT 2010 ralli Eastern serviceberry Amelanchier canadensis First Ripe Fruit 44.970900000000000 -93.233300000000000 10991
Thu Apr 01 00:00:00 GMT 2010 SusannahPrindle Eastern serviceberry Amelanchier canadensis First Flower 39.096700000000000 -77.023900000000000 11098
Fri Apr 02 00:00:00 GMT 2010 SusannahPrindle Eastern serviceberry Amelanchier canadensis Full Flower 39.096700000000000 -77.023900000000000 11099
Tue May 25 00:00:00 GMT 2010 SusannahPrindle Eastern serviceberry Amelanchier canadensis First Ripe Fruit 39.096700000000000 -77.023900000000000 11100
Sun Apr 11 00:00:00 GMT 2010 srulison Eastern serviceberry Amelanchier canadensis First Leaf 37.540000000000000 -75.920000000000000 11192
Thu Apr 22 00:00:00 GMT 2010 srulison Eastern serviceberry Amelanchier canadensis All Leaves Unfolded 37.540000000000000 -75.920000000000000 11193
Mon Apr 05 00:00:00 GMT 2010 srulison Eastern serviceberry Amelanchier canadensis First Flower 37.540000000000000 -75.920000000000000 11194
Wed Apr 07 00:00:00 GMT 2010 srulison Eastern serviceberry Amelanchier canadensis Full Flower 37.540000000000000 -75.920000000000000 11195
Thu Apr 15 00:00:00 GMT 2010 srulison Eastern serviceberry Amelanchier canadensis End of Flowering 37.540000000000000 -75.920000000000000 11196
Thu Oct 21 00:00:00 GMT 2010 ralli Eastern serviceberry Amelanchier canadensis 50% Color 44.970900000000000 -93.233300000000000 11373
Wed Nov 03 00:00:00 GMT 2010 ralli Eastern serviceberry Amelanchier canadensis 50% Leaf Fall 44.970900000000000 -93.233300000000000 11419
Thu Mar 25 00:00:00 GMT 2010 SusannahPrindle Eastern serviceberry Amelanchier canadensis First Leaf 39.096700000000000 -77.023900000000000 11623
Sun Mar 28 00:00:00 GMT 2010 SusannahPrindle Eastern serviceberry Amelanchier canadensis All Leaves Unfolded 39.096700000000000 -77.023900000000000 11624
Thu Apr 01 00:00:00 GMT 2010 SusannahPrindle Eastern serviceberry Amelanchier canadensis First Flower 39.096700000000000 -77.023900000000000 11625
Thu Apr 01 00:00:00 GMT 2010 SusannahPrindle Eastern serviceberry Amelanchier canadensis Full Flower 39.096700000000000 -77.023900000000000 11626
Sun Apr 04 00:00:00 GMT 2010 SusannahPrindle Eastern serviceberry Amelanchier canadensis End of Flowering 39.096700000000000 -77.023900000000000 11627
Tue May 25 00:00:00 GMT 2010 SusannahPrindle Eastern serviceberry Amelanchier canadensis First Ripe Fruit 39.096700000000000 -77.023900000000000 11628
Mon Oct 25 00:00:00 GMT 2010 SusannahPrindle Eastern serviceberry Amelanchier canadensis 50% Color 39.096700000000000 -77.023900000000000 11629
Sun Oct 31 00:00:00 GMT 2010 SusannahPrindle Eastern serviceberry Amelanchier canadensis 50% Leaf Fall 39.096700000000000 -77.023900000000000 11630
Wed Apr 06 00:00:00 GMT 2011 ravenwolf18@yahoo.com Eastern serviceberry Amelanchier canadensis First Leaf 40.621300000000000 -80.049200000000000 11846
Wed Mar 30 00:00:00 GMT 2011 beckyerick Eastern serviceberry Amelanchier canadensis Full Flower 38.745100000000000 -92.222600000000000 11876
Mon Mar 21 00:00:00 GMT 2011 twiseley614 Eastern serviceberry Amelanchier canadensis First Leaf 39.165300000000000 -86.526400000000000 12051
Mon Mar 21 00:00:00 GMT 2011 twiseley614 Eastern serviceberry Amelanchier canadensis First Flower 39.165300000000000 -86.526400000000000 12052
Tue Apr 26 00:00:00 GMT 2011 karcuri Eastern serviceberry Amelanchier canadensis First Flower 41.255600000000000 -76.420600000000000 12217
Fri Apr 29 00:00:00 GMT 2011 karcuri Eastern serviceberry Amelanchier canadensis Full Flower 41.255600000000000 -76.420600000000000 12243
Wed May 04 00:00:00 GMT 2011 allib001 Eastern serviceberry Amelanchier canadensis First Leaf 44.969800000000000 -93.229900000000000 12289
Thu May 05 00:00:00 GMT 2011 allib001 Eastern serviceberry Amelanchier canadensis First Leaf 45.053700000000000 -92.812700000000000 12310
Mon May 09 00:00:00 GMT 2011 allib001 Eastern serviceberry Amelanchier canadensis First Flower 44.969800000000000 -93.229900000000000 12355
Tue May 10 00:00:00 GMT 2011 allib001 Eastern serviceberry Amelanchier canadensis Full Flower 44.969800000000000 -93.229900000000000 12383
Tue May 10 00:00:00 GMT 2011 allib001 Eastern serviceberry Amelanchier canadensis First Flower 45.053700000000000 -92.812700000000000 12396
Mon Jun 13 00:00:00 GMT 2011 allib001 Eastern serviceberry Amelanchier canadensis First Ripe Fruit 44.969800000000000 -93.229900000000000 13008
Tue Sep 20 00:00:00 GMT 2011 cmullins Eastern serviceberry Amelanchier canadensis Leaves Dropping (Middle) 36.000000000000000 -80.000000000000000 13309
Tue Sep 20 00:00:00 GMT 2011 scasey Eastern serviceberry Amelanchier canadensis All Leaves Unfolded 36.924800000000000 -80.022100000000000 13324
Tue Oct 11 00:00:00 GMT 2011 allib001 Eastern serviceberry Amelanchier canadensis 50% Color 45.053700000000000 -92.812700000000000 13575
Wed Apr 06 00:00:00 GMT 2011 srulison Eastern serviceberry Amelanchier canadensis First Leaf 37.540000000000000 -75.920000000000000 13649
Tue Apr 19 00:00:00 GMT 2011 srulison Eastern serviceberry Amelanchier canadensis All Leaves Unfolded 37.540000000000000 -75.920000000000000 13650
Mon Apr 04 00:00:00 GMT 2011 srulison Eastern serviceberry Amelanchier canadensis First Flower 37.540000000000000 -75.920000000000000 13651
Thu Apr 07 00:00:00 GMT 2011 srulison Eastern serviceberry Amelanchier canadensis Full Flower 37.540000000000000 -75.920000000000000 13652
Thu Oct 27 00:00:00 GMT 2011 allib001 Eastern serviceberry Amelanchier canadensis 50% Color 44.969800000000000 -93.229900000000000 13784
Sat Nov 12 00:00:00 GMT 2011 allib001 Eastern serviceberry Amelanchier canadensis 50% Leaf Fall 44.969800000000000 -93.229900000000000 13863
Wed Mar 21 00:00:00 GMT 2012 kayrihavens Eastern serviceberry Amelanchier canadensis First Flower 42.151900000000000 -87.785500000000000 14363
Wed Mar 21 00:00:00 GMT 2012 allib001 Eastern serviceberry Amelanchier canadensis First Leaf 45.053700000000000 -92.812700000000000 14406
Wed Mar 21 00:00:00 GMT 2012 shelleyhr Eastern serviceberry Amelanchier canadensis First Flower 41.597400000000000 -85.874600000000000 14413
Thu Mar 22 00:00:00 GMT 2012 shelleyhr Eastern serviceberry Amelanchier canadensis Full Flower 41.597400000000000 -85.874600000000000 14414
Tue Mar 06 00:00:00 GMT 2012 Mary Ann Eastern serviceberry Amelanchier canadensis First Leaf 41.610600000000000 -87.064200000000000 14641
Fri Mar 09 00:00:00 GMT 2012 Mary Ann Eastern serviceberry Amelanchier canadensis All Leaves Unfolded 41.610600000000000 -87.064200000000000 14642
Fri Mar 16 00:00:00 GMT 2012 Mary Ann Eastern serviceberry Amelanchier canadensis First Flower 41.610600000000000 -87.064200000000000 14643
Wed Mar 21 00:00:00 GMT 2012 Mary Ann Eastern serviceberry Amelanchier canadensis Full Flower 41.610600000000000 -87.064200000000000 14644
Sun Mar 25 00:00:00 GMT 2012 psaunder Eastern serviceberry Amelanchier canadensis Full Flower 40.860400000000000 -82.319700000000000 14616
Mon Apr 02 00:00:00 GMT 2012 allib001 Eastern serviceberry Amelanchier canadensis First Flower 45.053700000000000 -92.812700000000000 14735
Wed Apr 04 00:00:00 GMT 2012 karcuri Eastern serviceberry Amelanchier canadensis Flowers (Middle) 41.255600000000000 -76.420600000000000 14748
Tue Mar 20 00:00:00 GMT 2012 eulera Eastern serviceberry Amelanchier canadensis First Leaf 40.459000000000000 -86.776300000000000 14804
Fri Mar 23 00:00:00 GMT 2012 eulera Eastern serviceberry Amelanchier canadensis All Leaves Unfolded 40.459000000000000 -86.776300000000000 14805
Thu Mar 15 00:00:00 GMT 2012 eulera Eastern serviceberry Amelanchier canadensis First Flower 40.459000000000000 -86.776300000000000 14806
Sat Mar 17 00:00:00 GMT 2012 eulera Eastern serviceberry Amelanchier canadensis Full Flower 40.459000000000000 -86.776300000000000 14807
Tue Apr 03 00:00:00 GMT 2012 serviceberry Eastern serviceberry Amelanchier canadensis First Leaf 35.366400000000000 -80.180400000000000 14821
Fri Apr 06 00:00:00 GMT 2012 serviceberry Eastern serviceberry Amelanchier canadensis All Leaves Unfolded 35.366400000000000 -80.180400000000000 14822
Thu Mar 22 00:00:00 GMT 2012 serviceberry Eastern serviceberry Amelanchier canadensis First Flower 35.366400000000000 -80.180400000000000 14823
Thu Mar 29 00:00:00 GMT 2012 serviceberry Eastern serviceberry Amelanchier canadensis Full Flower 35.366400000000000 -80.180400000000000 14824
Sat Apr 07 00:00:00 GMT 2012 aquilegia Eastern serviceberry Amelanchier canadensis First Flower 43.090400000000000 -87.881200000000000 14850
Thu Apr 05 00:00:00 GMT 2012 allib001 Eastern serviceberry Amelanchier canadensis Full Flower 45.053700000000000 -92.812700000000000 14862
Mon Apr 09 00:00:00 GMT 2012 aquilegia Eastern serviceberry Amelanchier canadensis Full Flower 43.090400000000000 -87.881200000000000 14910
Mon Apr 16 00:00:00 GMT 2012 centralNY Eastern serviceberry Amelanchier canadensis First Leaf 43.041000000000000 -76.212900000000000 15009
Tue Mar 20 00:00:00 GMT 2012 Lbockheim Eastern serviceberry Amelanchier canadensis Full Flower 42.582100000000000 -84.793500000000000 15141
Fri Apr 20 00:00:00 GMT 2012 centralNY Eastern serviceberry Amelanchier canadensis All Leaves Unfolded 43.041000000000000 -76.212900000000000 15137
Tue May 08 00:00:00 GMT 2012 Bobcats Eastern serviceberry Amelanchier canadensis First Leaf 46.206000000000000 -85.757000000000000 15636
Tue May 15 00:00:00 GMT 2012 Bobcats Eastern serviceberry Amelanchier canadensis All Leaves Unfolded 46.206000000000000 -85.757000000000000 15637
Tue May 08 00:00:00 GMT 2012 Bobcats Eastern serviceberry Amelanchier canadensis First Flower 46.206000000000000 -85.757000000000000 15736
Sat Mar 31 00:00:00 GMT 2012 Patuxent-BB Eastern serviceberry Amelanchier canadensis Full Flower 39.077700000000000 -76.771700000000000 15991
Sun Apr 29 00:00:00 GMT 2012 Patuxent-BB Eastern serviceberry Amelanchier canadensis Full Fruiting 39.077700000000000 -76.771700000000000 15992
Tue Jun 12 00:00:00 GMT 2012 aquilegia Eastern serviceberry Amelanchier canadensis First Ripe Fruit 43.090400000000000 -87.881200000000000 16028
Sat Jun 16 00:00:00 GMT 2012 aquilegia Eastern serviceberry Amelanchier canadensis Full Fruiting 43.090400000000000 -87.881200000000000 16029
Mon Mar 19 00:00:00 GMT 2012 SusannahPrindle Eastern serviceberry Amelanchier canadensis First Leaf 39.096700000000000 -77.023900000000000 16188
Sat Mar 24 00:00:00 GMT 2012 SusannahPrindle Eastern serviceberry Amelanchier canadensis All Leaves Unfolded 39.096700000000000 -77.023900000000000 16189
Tue Apr 10 00:00:00 GMT 2012 SusannahPrindle Eastern serviceberry Amelanchier canadensis First Flower 39.096700000000000 -77.023900000000000 16190
Tue Apr 17 00:00:00 GMT 2012 SusannahPrindle Eastern serviceberry Amelanchier canadensis Full Flower 39.096700000000000 -77.023900000000000 16191
Sat Apr 28 00:00:00 GMT 2012 SusannahPrindle Eastern serviceberry Amelanchier canadensis First Ripe Fruit 39.096700000000000 -77.023900000000000 16192
Fri May 04 00:00:00 GMT 2012 SusannahPrindle Eastern serviceberry Amelanchier canadensis Full Fruiting 39.096700000000000 -77.023900000000000 16193
Sat Sep 29 00:00:00 GMT 2012 PCILRiverside Eastern serviceberry Amelanchier canadensis 50% Color 41.820500000000000 -87.828200000000000 16837
Wed Oct 17 00:00:00 GMT 2012 PCILRiverside Eastern serviceberry Amelanchier canadensis 50% Leaf Fall 41.820500000000000 -87.828200000000000 17025
Mon Oct 15 00:00:00 GMT 2012 sandrah Eastern serviceberry Amelanchier canadensis Leaves Changing Color (Early) 38.929900000000000 -77.055000000000000 17069
Wed Apr 11 00:00:00 GMT 2012 srulison Eastern serviceberry Amelanchier canadensis First Leaf 37.540000000000000 -75.920000000000000 17490
Tue Apr 17 00:00:00 GMT 2012 srulison Eastern serviceberry Amelanchier canadensis All Leaves Unfolded 37.540000000000000 -75.920000000000000 17491
Thu Apr 05 00:00:00 GMT 2012 srulison Eastern serviceberry Amelanchier canadensis First Flower 37.540000000000000 -75.920000000000000 17492
Mon Apr 09 00:00:00 GMT 2012 srulison Eastern serviceberry Amelanchier canadensis Full Flower 37.540000000000000 -75.920000000000000 17493
Fri Oct 26 00:00:00 GMT 2012 srulison Eastern serviceberry Amelanchier canadensis 50% Leaf Fall 37.540000000000000 -75.920000000000000 17494
Mon Mar 19 00:00:00 GMT 2012 SusannahPrindle Eastern serviceberry Amelanchier canadensis First Leaf 39.096700000000000 -77.023900000000000 17682
Sat Mar 24 00:00:00 GMT 2012 SusannahPrindle Eastern serviceberry Amelanchier canadensis All Leaves Unfolded 39.096700000000000 -77.023900000000000 17683
Tue Apr 10 00:00:00 GMT 2012 SusannahPrindle Eastern serviceberry Amelanchier canadensis First Flower 39.096700000000000 -77.023900000000000 17684
Tue Apr 17 00:00:00 GMT 2012 SusannahPrindle Eastern serviceberry Amelanchier canadensis Full Flower 39.096700000000000 -77.023900000000000 17685
Sat Apr 28 00:00:00 GMT 2012 SusannahPrindle Eastern serviceberry Amelanchier canadensis First Ripe Fruit 39.096700000000000 -77.023900000000000 17686
Fri May 04 00:00:00 GMT 2012 SusannahPrindle Eastern serviceberry Amelanchier canadensis Full Fruiting 39.096700000000000 -77.023900000000000 17687
Sat Oct 13 00:00:00 GMT 2012 SusannahPrindle Eastern serviceberry Amelanchier canadensis 50% Color 39.096700000000000 -77.023900000000000 17688
Fri Oct 19 00:00:00 GMT 2012 SusannahPrindle Eastern serviceberry Amelanchier canadensis 50% Leaf Fall 39.096700000000000 -77.023900000000000 17689
Thu Mar 22 00:00:00 GMT 2012 McCoyRdE-Way01 Eastern serviceberry Amelanchier canadensis First Flower 43.106200000000000 -89.348800000000000 17833
Tue Apr 02 00:00:00 GMT 2013 Mango55 Eastern serviceberry Amelanchier canadensis Bud Burst 40.208200000000000 -76.771900000000000 18468
Tue Apr 09 00:00:00 GMT 2013 lockene Eastern serviceberry Amelanchier canadensis Bud Burst 42.344600000000000 -71.123300000000000 18799
Thu Apr 11 00:00:00 GMT 2013 Mango55 Eastern serviceberry Amelanchier canadensis First Leaf 40.208200000000000 -76.771900000000000 18814
Mon Apr 15 00:00:00 GMT 2013 Mango55 Eastern serviceberry Amelanchier canadensis First Flower 40.208200000000000 -76.771900000000000 18963
Wed Apr 17 00:00:00 GMT 2013 Mango55 Eastern serviceberry Amelanchier canadensis Full Flower 40.208200000000000 -76.771900000000000 18997
Fri Apr 19 00:00:00 GMT 2013 rdonaldson Eastern serviceberry Amelanchier canadensis Bud Burst 41.774600000000000 -81.044300000000000 19024
Sat Apr 20 00:00:00 GMT 2013 ncmns Eastern serviceberry Amelanchier canadensis Leaves Unfolding (Late) 35.772100000000000 -78.638600000000000 19040
Sat Apr 20 00:00:00 GMT 2013 ncmns Eastern serviceberry Amelanchier canadensis Flowers (Late) 35.772100000000000 -78.638600000000000 19041
Sun Apr 21 00:00:00 GMT 2013 Mango55 Eastern serviceberry Amelanchier canadensis All Leaves Unfolded 40.208200000000000 -76.771900000000000 19103
Wed Apr 24 00:00:00 GMT 2013 gwetterberg Eastern serviceberry Amelanchier canadensis Bud Burst 39.973700000000000 -79.258600000000000 19141
Thu Apr 25 00:00:00 GMT 2013 lockene Eastern serviceberry Amelanchier canadensis All Leaves Unfolded 42.344600000000000 -71.123300000000000 19348
Thu Apr 25 00:00:00 GMT 2013 lockene Eastern serviceberry Amelanchier canadensis First Leaf 42.344600000000000 -71.123300000000000 19346
Thu Apr 25 00:00:00 GMT 2013 lockene Eastern serviceberry Amelanchier canadensis First Flower 42.344600000000000 -71.123300000000000 19347
Sat Apr 27 00:00:00 GMT 2013 ncmns Eastern serviceberry Amelanchier canadensis Leaves Unfolding (Late) 35.811700000000000 -78.713900000000000 19382
Sat Apr 13 00:00:00 GMT 2013 ncmns Eastern serviceberry Amelanchier canadensis Leaves Unfolding (Early) 35.811700000000000 -78.713900000000000 19372
Sat Mar 30 00:00:00 GMT 2013 ncmns Eastern serviceberry Amelanchier canadensis Flowers (Early) 35.811700000000000 -78.713900000000000 19365
Mon Apr 29 00:00:00 GMT 2013 lockene Eastern serviceberry Amelanchier canadensis Full Flower 42.344600000000000 -71.123300000000000 19565
Sun Apr 07 00:00:00 GMT 2013 tkant Eastern serviceberry Amelanchier canadensis First Leaf 41.747100000000000 -72.690400000000000 19607
Sun Apr 14 00:00:00 GMT 2013 tkant Eastern serviceberry Amelanchier canadensis All Leaves Unfolded 41.747100000000000 -72.690400000000000 19608
Thu Apr 18 00:00:00 GMT 2013 tkant Eastern serviceberry Amelanchier canadensis First Flower 41.747100000000000 -72.690400000000000 19609
Sat Apr 20 00:00:00 GMT 2013 tkant Eastern serviceberry Amelanchier canadensis Full Flower 41.747100000000000 -72.690400000000000 19610
Fri May 03 00:00:00 GMT 2013 kayrihavens Eastern serviceberry Amelanchier canadensis First Flower 42.151900000000000 -87.785500000000000 19643
Sat Apr 13 00:00:00 GMT 2013 achai Eastern serviceberry Amelanchier canadensis First Leaf 41.747700000000000 -72.690400000000000 19805
Wed Apr 17 00:00:00 GMT 2013 achai Eastern serviceberry Amelanchier canadensis All Leaves Unfolded 41.747700000000000 -72.690400000000000 19806
Sun Apr 21 00:00:00 GMT 2013 achai Eastern serviceberry Amelanchier canadensis First Flower 41.747700000000000 -72.690400000000000 19807
Sun Apr 21 00:00:00 GMT 2013 achai Eastern serviceberry Amelanchier canadensis Full Flower 41.747700000000000 -72.690400000000000 19808
Thu Apr 04 00:00:00 GMT 2013 nbailkin1 Eastern serviceberry Amelanchier canadensis First Leaf 41.745800000000000 -72.690200000000000 19970
Fri Apr 12 00:00:00 GMT 2013 nbailkin1 Eastern serviceberry Amelanchier canadensis All Leaves Unfolded 41.745800000000000 -72.690200000000000 19971
Mon Apr 15 00:00:00 GMT 2013 nbailkin1 Eastern serviceberry Amelanchier canadensis First Flower 41.745800000000000 -72.690200000000000 19972
Sat Apr 20 00:00:00 GMT 2013 nbailkin1 Eastern serviceberry Amelanchier canadensis Full Flower 41.745800000000000 -72.690200000000000 19973
Wed May 01 00:00:00 GMT 2013 centralNY Eastern serviceberry Amelanchier canadensis First Leaf 43.041000000000000 -76.212900000000000 20030
Mon May 06 00:00:00 GMT 2013 centralNY Eastern serviceberry Amelanchier canadensis All Leaves Unfolded 43.041000000000000 -76.212900000000000 20031
Thu May 02 00:00:00 GMT 2013 centralNY Eastern serviceberry Amelanchier canadensis Full Flower 43.041000000000000 -76.212900000000000 20032
Sun May 12 00:00:00 GMT 2013 allib001 Eastern serviceberry Amelanchier canadensis First Leaf 45.053700000000000 -92.812700000000000 20230
Tue May 14 00:00:00 GMT 2013 allib001 Eastern serviceberry Amelanchier canadensis First Flower 45.053700000000000 -92.812700000000000 20417
Wed May 15 00:00:00 GMT 2013 allib001 Eastern serviceberry Amelanchier canadensis Full Flower 45.053700000000000 -92.812700000000000 20418
Thu May 16 00:00:00 GMT 2013 allib001 Eastern serviceberry Amelanchier canadensis All Leaves Unfolded 45.053700000000000 -92.812700000000000 20491
Mon May 06 00:00:00 GMT 2013 Seedling Eastern serviceberry Amelanchier canadensis Full Flower 42.118200000000000 -71.431600000000000 20710
Sun Jun 30 00:00:00 GMT 2013 allib001 Eastern serviceberry Amelanchier canadensis First Ripe Fruit 45.053700000000000 -92.812700000000000 21432
Tue Apr 09 00:00:00 GMT 2013 SusannahPrindle Eastern serviceberry Amelanchier canadensis Bud Burst 39.096700000000000 -77.023900000000000 21731
Thu Apr 11 00:00:00 GMT 2013 SusannahPrindle Eastern serviceberry Amelanchier canadensis First Leaf 39.096700000000000 -77.023900000000000 21732
Thu Apr 11 00:00:00 GMT 2013 SusannahPrindle Eastern serviceberry Amelanchier canadensis First Flower 39.096700000000000 -77.023900000000000 21733
Fri Apr 12 00:00:00 GMT 2013 SusannahPrindle Eastern serviceberry Amelanchier canadensis Full Flower 39.096700000000000 -77.023900000000000 21734
Wed May 22 00:00:00 GMT 2013 SusannahPrindle Eastern serviceberry Amelanchier canadensis First Ripe Fruit 39.096700000000000 -77.023900000000000 21735
Sun Jun 02 00:00:00 GMT 2013 SusannahPrindle Eastern serviceberry Amelanchier canadensis Full Fruiting 39.096700000000000 -77.023900000000000 21736
Tue Sep 24 00:00:00 GMT 2013 erinvics Eastern serviceberry Amelanchier canadensis Bud Burst 42.494000000000000 -73.554000000000000 22121
Tue Sep 24 00:00:00 GMT 2013 erinvics Eastern serviceberry Amelanchier canadensis First Leaf 42.494000000000000 -73.554000000000000 22122
Tue Sep 24 00:00:00 GMT 2013 erinvics Eastern serviceberry Amelanchier canadensis All Leaves Unfolded 42.494000000000000 -73.554000000000000 22123
Sat Oct 19 00:00:00 GMT 2013 usbg Eastern serviceberry Amelanchier canadensis Leaves Changing Color (Early) 38.888100000000000 -77.012900000000000 22622
Sat Oct 19 00:00:00 GMT 2013 usbg Eastern serviceberry Amelanchier canadensis Leaves Changing Color (Early) 38.888100000000000 -77.012900000000000 22657
Sat Oct 19 00:00:00 GMT 2013 usbg Eastern serviceberry Amelanchier canadensis Leaves Changing Color (Early) 38.888100000000000 -77.012900000000000 22646
Sat Oct 19 00:00:00 GMT 2013 usbg Eastern serviceberry Amelanchier canadensis Leaves Changing Color (Early) 38.888100000000000 -77.012900000000000 22634
Thu Oct 03 00:00:00 GMT 2013 centralNY Eastern serviceberry Amelanchier canadensis 50% Leaf Fall 43.041000000000000 -76.212900000000000 22686
Thu Oct 31 00:00:00 GMT 2013 allib001 Eastern serviceberry Amelanchier canadensis 50% Color 45.053700000000000 -92.812700000000000 22906
Sat Nov 02 00:00:00 GMT 2013 usbg Eastern serviceberry Amelanchier canadensis Leaves Changing Color (Middle) 38.888000000000000 -77.012900000000000 23005
Wed Nov 06 00:00:00 GMT 2013 usbg Eastern serviceberry Amelanchier canadensis Leaves Changing Color (Middle) 38.888000000000000 -77.012900000000000 23000
Sat Nov 02 00:00:00 GMT 2013 ncmns Eastern serviceberry Amelanchier canadensis Leaves Changing Color (Late) 35.811700000000000 -78.713900000000000 23050
Sat Oct 12 00:00:00 GMT 2013 bberry Eastern serviceberry Amelanchier canadensis 50% Color 40.766600000000000 -73.974900000000000 23145
Sat Nov 02 00:00:00 GMT 2013 bberry Eastern serviceberry Amelanchier canadensis 50% Leaf Fall 40.766600000000000 -73.974900000000000 23146
Wed Sep 25 00:00:00 GMT 2013 UCSF_137_F13_Loyola_University_Chicago_reporter100 Eastern serviceberry Amelanchier canadensis Leaves Changing Color (Early) 42.001100000000000 -87.661100000000000 24032
Sun Nov 10 00:00:00 GMT 2013 UCSF_137_F13_Loyola_University_Chicago_reporter100 Eastern serviceberry Amelanchier canadensis Leaves Dropping (Late) 42.001100000000000 -87.661100000000000 24034
Wed Oct 16 00:00:00 GMT 2013 UCSF_137_F13_Loyola_University_Chicago_reporter100 Eastern serviceberry Amelanchier canadensis Leaves Changing Color (Middle) 42.001100000000000 -87.661100000000000 24033
Tue Apr 09 00:00:00 GMT 2013 SusannahPrindle Eastern serviceberry Amelanchier canadensis Bud Burst 39.096700000000000 -77.023900000000000 24661
Thu Apr 11 00:00:00 GMT 2013 SusannahPrindle Eastern serviceberry Amelanchier canadensis First Leaf 39.096700000000000 -77.023900000000000 24662
Thu Apr 11 00:00:00 GMT 2013 SusannahPrindle Eastern serviceberry Amelanchier canadensis First Flower 39.096700000000000 -77.023900000000000 24663
Fri Apr 12 00:00:00 GMT 2013 SusannahPrindle Eastern serviceberry Amelanchier canadensis Full Flower 39.096700000000000 -77.023900000000000 24664
Wed May 22 00:00:00 GMT 2013 SusannahPrindle Eastern serviceberry Amelanchier canadensis First Ripe Fruit 39.096700000000000 -77.023900000000000 24665
Sun Jun 02 00:00:00 GMT 2013 SusannahPrindle Eastern serviceberry Amelanchier canadensis Full Fruiting 39.096700000000000 -77.023900000000000 24666
Sun Sep 08 00:00:00 GMT 2013 SusannahPrindle Eastern serviceberry Amelanchier canadensis 50% Color 39.096700000000000 -77.023900000000000 24667
Sat Oct 05 00:00:00 GMT 2013 SusannahPrindle Eastern serviceberry Amelanchier canadensis 50% Leaf Fall 39.096700000000000 -77.023900000000000 24668
Thu Jan 16 00:00:00 GMT 2014 ncmns Eastern serviceberry Amelanchier canadensis Leaves Unfolding (None) 35.810800000000000 -78.715100000000000 24722
Thu Jan 16 00:00:00 GMT 2014 ncmns Eastern serviceberry Amelanchier canadensis Leaves Changing Color (None) 35.810800000000000 -78.715100000000000 24723
Thu Jan 16 00:00:00 GMT 2014 ncmns Eastern serviceberry Amelanchier canadensis Leaves Dropping (Late) 35.810800000000000 -78.715100000000000 24724
Thu Jan 16 00:00:00 GMT 2014 ncmns Eastern serviceberry Amelanchier canadensis Flowers (None) 35.810800000000000 -78.715100000000000 24725
Thu Jan 16 00:00:00 GMT 2014 ncmns Eastern serviceberry Amelanchier canadensis Fruit (None) 35.810800000000000 -78.715100000000000 24726
Wed May 01 00:00:00 GMT 2013 McCoyRdE-Way01 Eastern serviceberry Amelanchier canadensis First Leaf 43.106200000000000 -89.348800000000000 25490
Mon May 06 00:00:00 GMT 2013 McCoyRdE-Way01 Eastern serviceberry Amelanchier canadensis All Leaves Unfolded 43.106200000000000 -89.348800000000000 25491
Sun May 05 00:00:00 GMT 2013 McCoyRdE-Way01 Eastern serviceberry Amelanchier canadensis First Flower 43.106200000000000 -89.348800000000000 25492
Mon May 06 00:00:00 GMT 2013 McCoyRdE-Way01 Eastern serviceberry Amelanchier canadensis Full Flower 43.106200000000000 -89.348800000000000 25493
Wed Jun 26 00:00:00 GMT 2013 McCoyRdE-Way01 Eastern serviceberry Amelanchier canadensis First Ripe Fruit 43.106200000000000 -89.348800000000000 25494
Tue Oct 29 00:00:00 GMT 2013 McCoyRdE-Way01 Eastern serviceberry Amelanchier canadensis 50% Color 43.106200000000000 -89.348800000000000 25495
Mon Nov 04 00:00:00 GMT 2013 McCoyRdE-Way01 Eastern serviceberry Amelanchier canadensis 50% Leaf Fall 43.106200000000000 -89.348800000000000 25496
Fri Mar 21 00:00:00 GMT 2014 bhfirehock Eastern serviceberry Amelanchier canadensis Bud Burst 35.142200000000000 -89.914700000000000 27418
Thu Mar 27 00:00:00 GMT 2014 pghbotanicgarden Eastern serviceberry Amelanchier canadensis Leaves Unfolding (None) 40.417100000000000 -80.169300000000000 27608
Thu Mar 27 00:00:00 GMT 2014 pghbotanicgarden Eastern serviceberry Amelanchier canadensis Leaves Changing Color (None) 40.417100000000000 -80.169300000000000 27609
Thu Mar 27 00:00:00 GMT 2014 pghbotanicgarden Eastern serviceberry Amelanchier canadensis Leaves Dropping (None) 40.417100000000000 -80.169300000000000 27610
Thu Mar 27 00:00:00 GMT 2014 pghbotanicgarden Eastern serviceberry Amelanchier canadensis Flowers (None) 40.417100000000000 -80.169300000000000 27611
Thu Mar 27 00:00:00 GMT 2014 pghbotanicgarden Eastern serviceberry Amelanchier canadensis Fruit (None) 40.417100000000000 -80.169300000000000 27612
Thu Mar 27 00:00:00 GMT 2014 laurob Eastern serviceberry Amelanchier canadensis Leaves Unfolding (None) 40.721400000000000 -73.793200000000000 27763
Thu Mar 27 00:00:00 GMT 2014 laurob Eastern serviceberry Amelanchier canadensis Leaves Changing Color (None) 40.721400000000000 -73.793200000000000 27764
Thu Mar 27 00:00:00 GMT 2014 laurob Eastern serviceberry Amelanchier canadensis Leaves Dropping (None) 40.721400000000000 -73.793200000000000 27765
Thu Mar 27 00:00:00 GMT 2014 laurob Eastern serviceberry Amelanchier canadensis Flowers (None) 40.721400000000000 -73.793200000000000 27766
Thu Mar 27 00:00:00 GMT 2014 laurob Eastern serviceberry Amelanchier canadensis Fruit (None) 40.721400000000000 -73.793200000000000 27767
Tue Apr 01 00:00:00 GMT 2014 bhfirehock Eastern serviceberry Amelanchier canadensis First Leaf 35.142200000000000 -89.914700000000000 28009
Thu Apr 03 00:00:00 GMT 2014 bhfirehock Eastern serviceberry Amelanchier canadensis First Flower 35.142200000000000 -89.914700000000000 28134
Mon Mar 31 00:00:00 GMT 2014 audstuck Eastern serviceberry Amelanchier canadensis Bud Burst 39.167512000000000 -86.514351000000000 28384
Sun Apr 06 00:00:00 GMT 2014 lprice Eastern serviceberry Amelanchier canadensis First Flower 37.186750000000000 -86.100540000000000 28811
Fri Apr 11 00:00:00 GMT 2014 laurob_St._John's_University__reporter24 Eastern serviceberry Amelanchier canadensis Bud Burst 40.721400000000000 -73.793200000000000 28843
Sat Apr 12 00:00:00 GMT 2014 bhfirehock Eastern serviceberry Amelanchier canadensis All Leaves Unfolded 35.142200000000000 -89.914700000000000 28859
Sat Apr 12 00:00:00 GMT 2014 mpgooley Eastern serviceberry Amelanchier canadensis Bud Burst 42.358800000000000 -71.250500000000000 29513
Sun Apr 13 00:00:00 GMT 2014 bettyh Eastern serviceberry Amelanchier canadensis Full Flower 38.920400000000000 -77.276500000000000 29530
Sun Apr 13 00:00:00 GMT 2014 pghbotanicgarden Eastern serviceberry Amelanchier canadensis Bud Burst 40.417200000000000 -80.169800000000000 29582
Sat Apr 12 00:00:00 GMT 2014 Mango55 Eastern serviceberry Amelanchier canadensis Bud Burst 40.208200000000000 -76.771900000000000 29670
Sun Apr 20 00:00:00 GMT 2014 Mango55 Eastern serviceberry Amelanchier canadensis First Flower 40.208200000000000 -76.771900000000000 29820
Sat Mar 01 00:00:00 GMT 2014 UCSF_spring14_Loyola_University_Chicago_reporter3 Eastern serviceberry Amelanchier canadensis Leaves Unfolding (None) 42.000134000000000 -87.658131000000000 29997
Sat Mar 01 00:00:00 GMT 2014 UCSF_spring14_Loyola_University_Chicago_reporter3 Eastern serviceberry Amelanchier canadensis Leaves Changing Color (None) 42.000134000000000 -87.658131000000000 29998
Sat Mar 01 00:00:00 GMT 2014 UCSF_spring14_Loyola_University_Chicago_reporter3 Eastern serviceberry Amelanchier canadensis Leaves Dropping (None) 42.000134000000000 -87.658131000000000 29999
Sat Mar 01 00:00:00 GMT 2014 UCSF_spring14_Loyola_University_Chicago_reporter3 Eastern serviceberry Amelanchier canadensis Flowers (None) 42.000134000000000 -87.658131000000000 30000
Sat Mar 01 00:00:00 GMT 2014 UCSF_spring14_Loyola_University_Chicago_reporter3 Eastern serviceberry Amelanchier canadensis Fruit (None) 42.000134000000000 -87.658131000000000 30001
Wed Apr 09 00:00:00 GMT 2014 UCSF_spring14_Loyola_University_Chicago_reporter3 Eastern serviceberry Amelanchier canadensis Leaves Unfolding (None) 42.001070000000000 -87.661060000000000 30002
Wed Apr 09 00:00:00 GMT 2014 UCSF_spring14_Loyola_University_Chicago_reporter3 Eastern serviceberry Amelanchier canadensis Leaves Changing Color (None) 42.001070000000000 -87.661060000000000 30003
Wed Apr 09 00:00:00 GMT 2014 UCSF_spring14_Loyola_University_Chicago_reporter3 Eastern serviceberry Amelanchier canadensis Leaves Dropping (None) 42.001070000000000 -87.661060000000000 30004
Wed Apr 09 00:00:00 GMT 2014 UCSF_spring14_Loyola_University_Chicago_reporter3 Eastern serviceberry Amelanchier canadensis Flowers (None) 42.001070000000000 -87.661060000000000 30005
Wed Apr 09 00:00:00 GMT 2014 UCSF_spring14_Loyola_University_Chicago_reporter3 Eastern serviceberry Amelanchier canadensis Fruit (None) 42.001070000000000 -87.661060000000000 30006
Wed Apr 16 00:00:00 GMT 2014 UCSF_spring14_Loyola_University_Chicago_reporter3 Eastern serviceberry Amelanchier canadensis Leaves Unfolding (None) 42.001070000000000 -87.661060000000000 30007
Wed Apr 16 00:00:00 GMT 2014 UCSF_spring14_Loyola_University_Chicago_reporter3 Eastern serviceberry Amelanchier canadensis Leaves Changing Color (None) 42.001070000000000 -87.661060000000000 30008
Wed Apr 16 00:00:00 GMT 2014 UCSF_spring14_Loyola_University_Chicago_reporter3 Eastern serviceberry Amelanchier canadensis Leaves Dropping (None) 42.001070000000000 -87.661060000000000 30009
Wed Apr 16 00:00:00 GMT 2014 UCSF_spring14_Loyola_University_Chicago_reporter3 Eastern serviceberry Amelanchier canadensis Flowers (None) 42.001070000000000 -87.661060000000000 30010
Wed Apr 16 00:00:00 GMT 2014 UCSF_spring14_Loyola_University_Chicago_reporter3 Eastern serviceberry Amelanchier canadensis Fruit (None) 42.001070000000000 -87.661060000000000 30011
Wed Mar 26 00:00:00 GMT 2014 UCSF_spring14_Loyola_University_Chicago_reporter3 Eastern serviceberry Amelanchier canadensis Leaves Unfolding (None) 42.001070000000000 -87.661060000000000 29992
Wed Mar 26 00:00:00 GMT 2014 UCSF_spring14_Loyola_University_Chicago_reporter3 Eastern serviceberry Amelanchier canadensis Leaves Changing Color (None) 42.001070000000000 -87.661060000000000 29993
Wed Mar 26 00:00:00 GMT 2014 UCSF_spring14_Loyola_University_Chicago_reporter3 Eastern serviceberry Amelanchier canadensis Leaves Dropping (None) 42.001070000000000 -87.661060000000000 29994
Wed Mar 26 00:00:00 GMT 2014 UCSF_spring14_Loyola_University_Chicago_reporter3 Eastern serviceberry Amelanchier canadensis Flowers (None) 42.001070000000000 -87.661060000000000 29995
Wed Mar 26 00:00:00 GMT 2014 UCSF_spring14_Loyola_University_Chicago_reporter3 Eastern serviceberry Amelanchier canadensis Fruit (None) 42.001070000000000 -87.661060000000000 29996
Thu Apr 10 00:00:00 GMT 2014 UCSF_spring14_Loyola_University_Chicago_reporter19 Eastern serviceberry Amelanchier canadensis Leaves Unfolding (Early) 41.999086000000000 -87.658675000000000 29922
Thu Apr 10 00:00:00 GMT 2014 UCSF_spring14_Loyola_University_Chicago_reporter19 Eastern serviceberry Amelanchier canadensis Leaves Changing Color (None) 41.999086000000000 -87.658675000000000 29923
Thu Apr 10 00:00:00 GMT 2014 UCSF_spring14_Loyola_University_Chicago_reporter19 Eastern serviceberry Amelanchier canadensis Leaves Dropping (None) 41.999086000000000 -87.658675000000000 29924
Thu Apr 10 00:00:00 GMT 2014 UCSF_spring14_Loyola_University_Chicago_reporter19 Eastern serviceberry Amelanchier canadensis Flowers (None) 41.999086000000000 -87.658675000000000 29925
Thu Apr 10 00:00:00 GMT 2014 UCSF_spring14_Loyola_University_Chicago_reporter19 Eastern serviceberry Amelanchier canadensis Fruit (None) 41.999086000000000 -87.658675000000000 29926
Thu Mar 27 00:00:00 GMT 2014 UCSF_spring14_Loyola_University_Chicago_reporter19 Eastern serviceberry Amelanchier canadensis Leaves Unfolding (None) 41.999093000000000 -87.658686000000000 29912
Thu Mar 27 00:00:00 GMT 2014 UCSF_spring14_Loyola_University_Chicago_reporter19 Eastern serviceberry Amelanchier canadensis Leaves Changing Color (None) 41.999093000000000 -87.658686000000000 29913
Thu Mar 27 00:00:00 GMT 2014 UCSF_spring14_Loyola_University_Chicago_reporter19 Eastern serviceberry Amelanchier canadensis Leaves Dropping (None) 41.999093000000000 -87.658686000000000 29914
Thu Mar 27 00:00:00 GMT 2014 UCSF_spring14_Loyola_University_Chicago_reporter19 Eastern serviceberry Amelanchier canadensis Flowers (None) 41.999093000000000 -87.658686000000000 29915
Thu Mar 27 00:00:00 GMT 2014 UCSF_spring14_Loyola_University_Chicago_reporter19 Eastern serviceberry Amelanchier canadensis Fruit (None) 41.999093000000000 -87.658686000000000 29916
Thu Apr 03 00:00:00 GMT 2014 UCSF_spring14_Loyola_University_Chicago_reporter19 Eastern serviceberry Amelanchier canadensis Leaves Unfolding (Early) 41.999093000000000 -87.658676000000000 29917
Thu Apr 03 00:00:00 GMT 2014 UCSF_spring14_Loyola_University_Chicago_reporter19 Eastern serviceberry Amelanchier canadensis Leaves Changing Color (None) 41.999093000000000 -87.658676000000000 29918
Thu Apr 03 00:00:00 GMT 2014 UCSF_spring14_Loyola_University_Chicago_reporter19 Eastern serviceberry Amelanchier canadensis Leaves Dropping (None) 41.999093000000000 -87.658676000000000 29919
Thu Apr 03 00:00:00 GMT 2014 UCSF_spring14_Loyola_University_Chicago_reporter19 Eastern serviceberry Amelanchier canadensis Flowers (None) 41.999093000000000 -87.658676000000000 29920
Thu Apr 03 00:00:00 GMT 2014 UCSF_spring14_Loyola_University_Chicago_reporter19 Eastern serviceberry Amelanchier canadensis Fruit (None) 41.999093000000000 -87.658676000000000 29921
Thu Apr 17 00:00:00 GMT 2014 UCSF_spring14_Loyola_University_Chicago_reporter19 Eastern serviceberry Amelanchier canadensis Leaves Unfolding (Early) 41.999083000000000 -87.658680000000000 29927
Thu Apr 17 00:00:00 GMT 2014 UCSF_spring14_Loyola_University_Chicago_reporter19 Eastern serviceberry Amelanchier canadensis Leaves Changing Color (None) 41.999083000000000 -87.658680000000000 29928
Thu Apr 17 00:00:00 GMT 2014 UCSF_spring14_Loyola_University_Chicago_reporter19 Eastern serviceberry Amelanchier canadensis Leaves Dropping (None) 41.999083000000000 -87.658680000000000 29929
Thu Apr 17 00:00:00 GMT 2014 UCSF_spring14_Loyola_University_Chicago_reporter19 Eastern serviceberry Amelanchier canadensis Flowers (None) 41.999083000000000 -87.658680000000000 29930
Thu Apr 17 00:00:00 GMT 2014 UCSF_spring14_Loyola_University_Chicago_reporter19 Eastern serviceberry Amelanchier canadensis Fruit (None) 41.999083000000000 -87.658680000000000 29931
Tue Apr 22 00:00:00 GMT 2014 Mango55 Eastern serviceberry Amelanchier canadensis Full Flower 40.208200000000000 -76.771900000000000 30544
Wed Apr 23 00:00:00 GMT 2014 Mango55 Eastern serviceberry Amelanchier canadensis First Leaf 40.208200000000000 -76.771900000000000 30543
Sat Apr 19 00:00:00 GMT 2014 laurob_St._John's_University__reporter14 Eastern serviceberry Amelanchier canadensis Bud Burst 40.721400000000000 -73.793200000000000 31117
Mon Apr 21 00:00:00 GMT 2014 laurob_St._John's_University__reporter14 Eastern serviceberry Amelanchier canadensis First Flower 40.721400000000000 -73.793200000000000 31118
Fri Apr 25 00:00:00 GMT 2014 laurob_St._John's_University__reporter14 Eastern serviceberry Amelanchier canadensis Full Flower 40.721400000000000 -73.793200000000000 31119
Sat Apr 19 00:00:00 GMT 2014 laurob_St._John's_University__reporter14 Eastern serviceberry Amelanchier canadensis Leaves Unfolding (None) 40.000000000000000 -100.000000000000000 31120
Sat Apr 19 00:00:00 GMT 2014 laurob_St._John's_University__reporter14 Eastern serviceberry Amelanchier canadensis Leaves Changing Color (None) 40.000000000000000 -100.000000000000000 31121
Sat Apr 19 00:00:00 GMT 2014 laurob_St._John's_University__reporter14 Eastern serviceberry Amelanchier canadensis Leaves Dropping (None) 40.000000000000000 -100.000000000000000 31122
Sat Apr 19 00:00:00 GMT 2014 laurob_St._John's_University__reporter14 Eastern serviceberry Amelanchier canadensis Flowers (None) 40.000000000000000 -100.000000000000000 31123
Sat Apr 19 00:00:00 GMT 2014 laurob_St._John's_University__reporter14 Eastern serviceberry Amelanchier canadensis Fruit (None) 40.000000000000000 -100.000000000000000 31124
Thu Apr 24 00:00:00 GMT 2014 pghbotanicgarden Eastern serviceberry Amelanchier canadensis First Leaf 40.417200000000000 -80.169800000000000 31280
Sun Apr 27 00:00:00 GMT 2014 pghbotanicgarden Eastern serviceberry Amelanchier canadensis All Leaves Unfolded 40.417200000000000 -80.169800000000000 31281
Thu Apr 24 00:00:00 GMT 2014 pghbotanicgarden Eastern serviceberry Amelanchier canadensis First Flower 40.417200000000000 -80.169800000000000 31282
Sun Apr 27 00:00:00 GMT 2014 pghbotanicgarden Eastern serviceberry Amelanchier canadensis Full Flower 40.417200000000000 -80.169800000000000 31283
Sun May 04 00:00:00 GMT 2014 mpgooley Eastern serviceberry Amelanchier canadensis First Flower 42.358800000000000 -71.250500000000000 31458
Wed Apr 30 00:00:00 GMT 2014 laurob_St._John's_University__reporter14 Eastern serviceberry Amelanchier canadensis First Leaf 40.721400000000000 -73.793200000000000 31558
Mon May 05 00:00:00 GMT 2014 laurob_St._John's_University__reporter14 Eastern serviceberry Amelanchier canadensis All Leaves Unfolded 40.721400000000000 -73.793200000000000 31559
Sun May 04 00:00:00 GMT 2014 Mango55 Eastern serviceberry Amelanchier canadensis All Leaves Unfolded 40.208200000000000 -76.771900000000000 31628
Tue May 06 00:00:00 GMT 2014 allib001 Eastern serviceberry Amelanchier canadensis First Leaf 45.053700000000000 -92.812700000000000 31699
Sun Apr 20 00:00:00 GMT 2014 laurob_St._John's_University__reporter14 Eastern serviceberry Amelanchier canadensis Leaves Unfolding (None) 40.715410000000000 -74.012670000000000 31812
Sun Apr 20 00:00:00 GMT 2014 laurob_St._John's_University__reporter14 Eastern serviceberry Amelanchier canadensis Leaves Changing Color (None) 40.715410000000000 -74.012670000000000 31813
Sun Apr 20 00:00:00 GMT 2014 laurob_St._John's_University__reporter14 Eastern serviceberry Amelanchier canadensis Leaves Dropping (None) 40.715410000000000 -74.012670000000000 31814
Sun Apr 20 00:00:00 GMT 2014 laurob_St._John's_University__reporter14 Eastern serviceberry Amelanchier canadensis Flowers (None) 40.715410000000000 -74.012670000000000 31815
Sun Apr 20 00:00:00 GMT 2014 laurob_St._John's_University__reporter14 Eastern serviceberry Amelanchier canadensis Fruit (None) 40.715410000000000 -74.012670000000000 31816
Tue May 06 00:00:00 GMT 2014 kayrihavens Eastern serviceberry Amelanchier canadensis First Flower 42.151900000000000 -87.785500000000000 32172
Tue May 13 00:00:00 GMT 2014 gwetterberg Eastern serviceberry Amelanchier canadensis Full Flower 39.973700000000000 -79.258600000000000 32215
Thu May 01 00:00:00 GMT 2014 gwetterberg Eastern serviceberry Amelanchier canadensis First Flower 39.973700000000000 -79.258600000000000 32214
Wed May 14 00:00:00 GMT 2014 allib001 Eastern serviceberry Amelanchier canadensis All Leaves Unfolded 45.053700000000000 -92.812700000000000 32406
Thu May 15 00:00:00 GMT 2014 aquilegia Eastern serviceberry Amelanchier canadensis First Flower 43.090400000000000 -87.881200000000000 32463
Sun May 18 00:00:00 GMT 2014 aquilegia Eastern serviceberry Amelanchier canadensis Full Flower 43.090400000000000 -87.881200000000000 32680
Fri May 16 00:00:00 GMT 2014 allib001 Eastern serviceberry Amelanchier canadensis First Flower 45.053700000000000 -92.812700000000000 32854
Wed May 21 00:00:00 GMT 2014 allib001 Eastern serviceberry Amelanchier canadensis Full Flower 45.053700000000000 -92.812700000000000 32855
Wed May 14 00:00:00 GMT 2014 hyurchenco Eastern serviceberry Amelanchier canadensis Leaves Unfolding (Middle) 44.820320000000000 -73.091800000000000 32983
Wed May 14 00:00:00 GMT 2014 hyurchenco Eastern serviceberry Amelanchier canadensis Leaves Changing Color (None) 44.820320000000000 -73.091800000000000 32984
Wed May 14 00:00:00 GMT 2014 hyurchenco Eastern serviceberry Amelanchier canadensis Leaves Dropping (None) 44.820320000000000 -73.091800000000000 32985
Wed May 14 00:00:00 GMT 2014 hyurchenco Eastern serviceberry Amelanchier canadensis Flowers (Middle) 44.820320000000000 -73.091800000000000 32986
Wed May 14 00:00:00 GMT 2014 hyurchenco Eastern serviceberry Amelanchier canadensis Fruit (None) 44.820320000000000 -73.091800000000000 32987
Thu Apr 24 00:00:00 GMT 2014 ecm Eastern serviceberry Amelanchier canadensis Bud Burst 42.056500000000000 -80.103660000000000 33154
Fri May 09 00:00:00 GMT 2014 ecm Eastern serviceberry Amelanchier canadensis First Leaf 42.056500000000000 -80.103660000000000 33155
Sat May 17 00:00:00 GMT 2014 ecm Eastern serviceberry Amelanchier canadensis All Leaves Unfolded 42.056500000000000 -80.103660000000000 33156
Tue May 06 00:00:00 GMT 2014 ecm Eastern serviceberry Amelanchier canadensis First Flower 42.056500000000000 -80.103660000000000 33157
Tue May 13 00:00:00 GMT 2014 ecm Eastern serviceberry Amelanchier canadensis Full Flower 42.056500000000000 -80.103660000000000 33158
Sun May 25 00:00:00 GMT 2014 Mango55 Eastern serviceberry Amelanchier canadensis First Ripe Fruit 40.208200000000000 -76.771900000000000 33168
Sun Jun 08 00:00:00 GMT 2014 bayfawn Eastern serviceberry Amelanchier canadensis First Ripe Fruit 39.448260000000000 -76.267280000000000 33716
Sun Jun 08 00:00:00 GMT 2014 bayfawn Eastern serviceberry Amelanchier canadensis Full Fruiting 39.448260000000000 -76.267280000000000 34223
Fri Apr 11 00:00:00 GMT 2014 SusannahPrindle Eastern serviceberry Amelanchier canadensis Bud Burst 39.096700000000000 -77.023900000000000 34786
Wed Apr 16 00:00:00 GMT 2014 SusannahPrindle Eastern serviceberry Amelanchier canadensis First Flower 39.096700000000000 -77.023900000000000 34787
Thu Apr 17 00:00:00 GMT 2014 SusannahPrindle Eastern serviceberry Amelanchier canadensis Full Flower 39.096700000000000 -77.023900000000000 34788
Wed May 28 00:00:00 GMT 2014 SusannahPrindle Eastern serviceberry Amelanchier canadensis First Ripe Fruit 39.096700000000000 -77.023900000000000 34789
Thu Jun 12 00:00:00 GMT 2014 SusannahPrindle Eastern serviceberry Amelanchier canadensis Full Fruiting 39.096700000000000 -77.023900000000000 34790
Sun Oct 05 00:00:00 GMT 2014 bayfawn Eastern serviceberry Amelanchier canadensis 50% Color 39.448260000000000 -76.267280000000000 36063
Sun Nov 02 00:00:00 GMT 2014 bayfawn Eastern serviceberry Amelanchier canadensis 50% Leaf Fall 39.448260000000000 -76.267280000000000 39791
Sat Apr 25 00:00:00 GMT 2015 mpgooley Eastern serviceberry Amelanchier canadensis Bud Burst 42.358800000000000 -71.250500000000000 62015
Sun May 03 00:00:00 GMT 2015 mpgooley Eastern serviceberry Amelanchier canadensis First Flower 42.358800000000000 -71.250500000000000 62016
Sun Apr 03 00:00:00 GMT 2016 jafranklin Eastern serviceberry Amelanchier canadensis Bud Burst 35.767965000000000 -83.939495000000000 63767
Tue Apr 05 00:00:00 GMT 2016 penquist Eastern serviceberry Amelanchier canadensis Leaves Unfolding (None) 41.317370000000000 -88.863670000000000 63781
Tue Apr 05 00:00:00 GMT 2016 penquist Eastern serviceberry Amelanchier canadensis Leaves Changing Color (None) 41.317370000000000 -88.863670000000000 63782
Tue Apr 05 00:00:00 GMT 2016 penquist Eastern serviceberry Amelanchier canadensis Leaves Dropping (None) 41.317370000000000 -88.863670000000000 63783
Tue Apr 05 00:00:00 GMT 2016 penquist Eastern serviceberry Amelanchier canadensis Flowers (Early) 41.317370000000000 -88.863670000000000 63784
Tue Apr 05 00:00:00 GMT 2016 penquist Eastern serviceberry Amelanchier canadensis Fruit (None) 41.317370000000000 -88.863670000000000 63785
Tue Apr 05 00:00:00 GMT 2016 jafranklin Eastern serviceberry Amelanchier canadensis First Flower 35.767965000000000 -83.939495000000000 63792
Tue Apr 12 00:00:00 GMT 2016 allib001 Eastern serviceberry Amelanchier canadensis Bud Burst 45.053700000000000 -92.812700000000000 64642
Fri Apr 22 00:00:00 GMT 2016 allib001 Eastern serviceberry Amelanchier canadensis First Flower 45.053700000000000 -92.812700000000000 65095
Sun Apr 24 00:00:00 GMT 2016 allib001 Eastern serviceberry Amelanchier canadensis Full Flower 45.053700000000000 -92.812700000000000 65096
Wed Mar 30 00:00:00 GMT 2016 laurob_St._John's_University__reporter2 Eastern serviceberry Amelanchier canadensis Bud Burst 40.721400000000000 -73.793200000000000 65428
Fri Apr 22 00:00:00 GMT 2016 laurob_St._John's_University__reporter2 Eastern serviceberry Amelanchier canadensis First Leaf 40.721400000000000 -73.793200000000000 65429
Tue Apr 19 00:00:00 GMT 2016 laurob_St._John's_University__reporter2 Eastern serviceberry Amelanchier canadensis First Flower 40.721400000000000 -73.793200000000000 65430
Fri Apr 22 00:00:00 GMT 2016 laurob_St._John's_University__reporter2 Eastern serviceberry Amelanchier canadensis Leaves Unfolding (Middle) 40.718705000000000 -73.797140000000000 65431
Fri Apr 22 00:00:00 GMT 2016 laurob_St._John's_University__reporter2 Eastern serviceberry Amelanchier canadensis Leaves Changing Color (None) 40.718705000000000 -73.797140000000000 65432
Fri Apr 22 00:00:00 GMT 2016 laurob_St._John's_University__reporter2 Eastern serviceberry Amelanchier canadensis Leaves Dropping (None) 40.718705000000000 -73.797140000000000 65433
Fri Apr 22 00:00:00 GMT 2016 laurob_St._John's_University__reporter2 Eastern serviceberry Amelanchier canadensis Flowers (Early) 40.718705000000000 -73.797140000000000 65434
Fri Apr 22 00:00:00 GMT 2016 laurob_St._John's_University__reporter2 Eastern serviceberry Amelanchier canadensis Fruit (None) 40.718705000000000 -73.797140000000000 65435
Mon Apr 25 00:00:00 GMT 2016 allib001 Eastern serviceberry Amelanchier canadensis First Leaf 45.053700000000000 -92.812700000000000 65580
Mon May 09 00:00:00 GMT 2016 allib001 Eastern serviceberry Amelanchier canadensis All Leaves Unfolded 45.053700000000000 -92.812700000000000 66593
Tue May 10 00:00:00 GMT 2016 dragonn Eastern serviceberry Amelanchier canadensis Leaves Unfolding (None) 42.658340000000000 -71.136800000000000 66717
Tue May 10 00:00:00 GMT 2016 dragonn Eastern serviceberry Amelanchier canadensis Leaves Changing Color (None) 42.658340000000000 -71.136800000000000 66718
Tue May 10 00:00:00 GMT 2016 dragonn Eastern serviceberry Amelanchier canadensis Leaves Dropping (None) 42.658340000000000 -71.136800000000000 66719
Tue May 10 00:00:00 GMT 2016 dragonn Eastern serviceberry Amelanchier canadensis Flowers (Early) 42.658340000000000 -71.136800000000000 66720
Tue May 10 00:00:00 GMT 2016 dragonn Eastern serviceberry Amelanchier canadensis Fruit (None) 42.658340000000000 -71.136800000000000 66721
Sun May 08 00:00:00 GMT 2016 NaviWing Eastern serviceberry Amelanchier canadensis Full Flower 42.998820000000000 -78.837890000000000 67005
Thu Jun 02 00:00:00 GMT 2016 ianchapin Eastern serviceberry Amelanchier canadensis Leaves Unfolding (Late) 44.219439000000000 -74.439451000000000 68207
Thu Jun 02 00:00:00 GMT 2016 ianchapin Eastern serviceberry Amelanchier canadensis Leaves Changing Color (None) 44.219439000000000 -74.439451000000000 68208
Thu Jun 02 00:00:00 GMT 2016 ianchapin Eastern serviceberry Amelanchier canadensis Leaves Dropping (None) 44.219439000000000 -74.439451000000000 68209
Thu Jun 02 00:00:00 GMT 2016 ianchapin Eastern serviceberry Amelanchier canadensis Flowers (Middle) 44.219439000000000 -74.439451000000000 68210
Thu Jun 02 00:00:00 GMT 2016 ianchapin Eastern serviceberry Amelanchier canadensis Fruit (None) 44.219439000000000 -74.439451000000000 68211
Mon Jun 13 00:00:00 GMT 2016 allib001 Eastern serviceberry Amelanchier canadensis Full Fruiting 45.053700000000000 -92.812700000000000 68652
Thu Oct 13 00:00:00 GMT 2016 allib001 Eastern serviceberry Amelanchier canadensis 50% Color 45.053700000000000 -92.812700000000000 74078
Tue Oct 18 00:00:00 GMT 2016 allib001 Eastern serviceberry Amelanchier canadensis 50% Leaf Fall 45.053700000000000 -92.812700000000000 74079
Mon Mar 20 00:00:00 GMT 2017 swashburn57 Eastern serviceberry Amelanchier canadensis Bud Burst 40.506360000000000 -79.894670000000000 75990
Wed Mar 29 00:00:00 GMT 2017 allib001 Eastern serviceberry Amelanchier canadensis Bud Burst 45.053700000000000 -92.812700000000000 76574
Mon Apr 03 00:00:00 GMT 2017 fran Eastern serviceberry Amelanchier canadensis Bud Burst 40.723280000000000 -73.942220000000000 76757
Mon Apr 03 00:00:00 GMT 2017 rachelsafko Eastern serviceberry Amelanchier canadensis Bud Burst 40.726880000000000 -73.943490000000000 76772
Thu Mar 02 00:00:00 GMT 2017 paigedougherty Eastern serviceberry Amelanchier canadensis Bud Burst 39.169997000000000 -86.510060000000000 77008
Mon Mar 27 00:00:00 GMT 2017 paigedougherty Eastern serviceberry Amelanchier canadensis First Flower 39.169997000000000 -86.510060000000000 77009
Sat Apr 01 00:00:00 GMT 2017 paigedougherty Eastern serviceberry Amelanchier canadensis Full Flower 39.169997000000000 -86.510060000000000 77010
Thu Apr 06 00:00:00 GMT 2017 alyrande Eastern serviceberry Amelanchier canadensis Leaves Unfolding (Early) 39.166216000000000 -86.516590000000000 77146
Thu Apr 06 00:00:00 GMT 2017 alyrande Eastern serviceberry Amelanchier canadensis Leaves Changing Color (None) 39.166216000000000 -86.516590000000000 77147
Thu Apr 06 00:00:00 GMT 2017 alyrande Eastern serviceberry Amelanchier canadensis Leaves Dropping (None) 39.166216000000000 -86.516590000000000 77148
Thu Apr 06 00:00:00 GMT 2017 alyrande Eastern serviceberry Amelanchier canadensis Flowers (Early) 39.166216000000000 -86.516590000000000 77149
Thu Apr 06 00:00:00 GMT 2017 alyrande Eastern serviceberry Amelanchier canadensis Fruit (None) 39.166216000000000 -86.516590000000000 77150
Sun Apr 09 00:00:00 GMT 2017 swashburn57 Eastern serviceberry Amelanchier canadensis First Flower 40.506360000000000 -79.894670000000000 77326
Mon Apr 17 00:00:00 GMT 2017 kayrihavens Eastern serviceberry Amelanchier canadensis First Flower 42.151900000000000 -87.785500000000000 78575
Mon Apr 10 00:00:00 GMT 2017 rachelsafko Eastern serviceberry Amelanchier canadensis Full Flower 40.726880000000000 -73.943490000000000 78780
Wed Apr 05 00:00:00 GMT 2017 laurob_St._John's_University__reporter14 Eastern serviceberry Amelanchier canadensis Bud Burst 40.721400000000000 -73.793200000000000 79223
Sat Apr 15 00:00:00 GMT 2017 laurob_St._John's_University__reporter14 Eastern serviceberry Amelanchier canadensis First Leaf 40.721400000000000 -73.793200000000000 79224
Wed Apr 19 00:00:00 GMT 2017 laurob_St._John's_University__reporter14 Eastern serviceberry Amelanchier canadensis All Leaves Unfolded 40.721400000000000 -73.793200000000000 79225
Sat Apr 15 00:00:00 GMT 2017 laurob_St._John's_University__reporter14 Eastern serviceberry Amelanchier canadensis First Flower 40.721400000000000 -73.793200000000000 79226
Mon Apr 17 00:00:00 GMT 2017 laurob_St._John's_University__reporter14 Eastern serviceberry Amelanchier canadensis Full Flower 40.721400000000000 -73.793200000000000 79227
Wed Apr 26 00:00:00 GMT 2017 allib001 Eastern serviceberry Amelanchier canadensis Full Flower 45.053700000000000 -92.812700000000000 80395

*All downloadable materials require the free Adobe Reader.